Time;durP1;ratioP1;P1;durP2;ratioP2;P2;SDS_P1;SDS_P2;PMS_P1;PMS_P2;Temp;Humidity;BMP_temperature;BMP_pressure;BME280_temperature;BME280_humidity;BME280_pressure;Samples;Min_cycle;Max_cycle;Signal;HPM_P1;HPM_P2
2022/03/16 00:00:04;;;;;;;78.90;45.80;;;;;;;7.03;59.37;101133.33;105268;1281;26668;-76
2022/03/16 00:02:38;;;;;;;68.40;45.00;;;;;;;7.02;59.31;101129.80;104949;1284;22529;-78
2022/03/16 00:05:05;;;;;;;78.20;47.40;;;;;;;7.01;59.30;101127.85;105063;1284;22768;-79
2022/03/16 00:07:32;;;;;;;82.40;48.50;;;;;;;6.95;59.41;101120.41;105013;1285;24312;-78
2022/03/16 00:10:00;;;;;;;77.80;48.90;;;;;;;6.90;59.45;101122.42;104854;1286;24394;-76
2022/03/16 00:12:27;;;;;;;83.80;50.80;;;;;;;6.84;59.45;101125.28;105033;1285;24230;-79
2022/03/16 00:14:54;;;;;;;79.40;50.30;;;;;;;6.75;59.57;101128.10;104843;1285;25352;-81
2022/03/16 00:17:21;;;;;;;75.20;51.30;;;;;;;6.66;59.63;101124.98;105182;1284;26684;-79
2022/03/16 00:19:48;;;;;;;77.70;50.10;;;;;;;6.59;59.88;101118.18;105158;1284;25524;-75
2022/03/16 00:22:15;;;;;;;77.00;49.40;;;;;;;6.52;59.95;101116.13;104948;1284;25485;-76
2022/03/16 00:24:42;;;;;;;76.30;50.10;;;;;;;6.45;60.16;101117.05;105237;1284;23334;-75
2022/03/16 00:27:09;;;;;;;77.00;51.30;;;;;;;6.44;60.38;101110.38;105284;1281;23977;-77
2022/03/16 00:29:36;;;;;;;72.60;49.70;;;;;;;6.40;60.32;101108.73;104612;1287;24249;-76
2022/03/16 00:32:04;;;;;;;76.90;50.60;;;;;;;6.35;60.44;101107.38;104925;1287;25270;-72
2022/03/16 00:34:31;;;;;;;88.30;51.70;;;;;;;6.33;60.51;101108.38;104591;1288;24524;-74
2022/03/16 00:36:59;;;;;;;76.50;50.10;;;;;;;6.29;60.62;101112.19;104933;1287;22750;-77
2022/03/16 00:39:26;;;;;;;78.30;51.30;;;;;;;6.25;60.71;101113.48;104683;1288;25823;-79
2022/03/16 00:41:53;;;;;;;74.20;50.30;;;;;;;6.25;60.81;101103.00;104779;1288;22548;-79
2022/03/16 00:44:21;;;;;;;71.30;50.00;;;;;;;6.27;60.94;101106.19;104774;1287;25374;-75
2022/03/16 00:46:48;;;;;;;94.20;56.90;;;;;;;6.32;61.04;101114.51;104839;1287;24322;-77
2022/03/16 00:49:15;;;;;;;89.10;54.40;;;;;;;6.36;61.09;101115.79;105386;1282;22580;-78
2022/03/16 00:51:42;;;;;;;90.00;55.50;;;;;;;6.38;61.14;101114.08;105471;1281;22584;-82
2022/03/16 00:54:09;;;;;;;83.10;54.10;;;;;;;6.34;61.00;101104.75;105951;1281;22558;-80
2022/03/16 00:56:37;;;;;;;107.00;59.50;;;;;;;6.33;61.03;101104.89;105475;1284;26017;-79
2022/03/16 00:59:04;;;;;;;100.70;57.70;;;;;;;6.31;61.08;101105.21;105639;1281;22867;-80
2022/03/16 01:01:30;;;;;;;98.10;56.90;;;;;;;6.31;61.15;101099.61;105546;1281;22824;-81
2022/03/16 01:03:58;;;;;;;105.20;58.10;;;;;;;6.36;61.14;101106.18;105296;1281;25488;-79
2022/03/16 01:06:25;;;;;;;108.60;60.50;;;;;;;6.38;61.23;101102.37;105713;1281;23099;-81
2022/03/16 01:08:52;;;;;;;92.40;58.90;;;;;;;6.39;61.19;101103.46;105730;1281;22566;-80
2022/03/16 01:11:19;;;;;;;100.60;60.20;;;;;;;6.40;60.92;101095.27;105730;1281;24062;-78
2022/03/16 01:13:46;;;;;;;112.10;59.60;;;;;;;6.38;61.07;101094.50;105515;1281;24438;-80
2022/03/16 01:16:13;;;;;;;97.70;58.40;;;;;;;6.31;60.93;101095.77;105717;1281;22653;-82
2022/03/16 01:18:40;;;;;;;110.40;62.50;;;;;;;6.21;61.00;101091.89;105694;1281;25355;-80
2022/03/16 01:21:08;;;;;;;116.50;61.80;;;;;;;6.17;61.29;101102.13;105751;1281;23964;-80
2022/03/16 01:23:36;;;;;;;110.40;62.10;;;;;;;6.17;61.62;101096.73;105313;1281;22574;-81
2022/03/16 01:26:05;;;;;;;113.40;63.30;;;;;;;6.16;61.51;101100.54;104987;1285;24243;-81
2022/03/16 01:28:33;;;;;;;94.70;59.20;;;;;;;6.13;61.64;101096.29;105061;1285;24334;-81
2022/03/16 01:31:01;;;;;;;101.90;60.50;;;;;;;6.15;61.71;101092.84;105119;1284;24308;-79
2022/03/16 01:33:30;;;;;;;103.60;61.90;;;;;;;6.15;61.64;101088.29;105118;1284;22554;-80
2022/03/16 01:35:57;;;;;;;103.20;61.50;;;;;;;6.11;61.53;101085.58;104875;1286;25349;-78
2022/03/16 01:38:25;;;;;;;94.10;58.90;;;;;;;6.05;61.73;101086.67;105059;1287;25267;-81
2022/03/16 01:40:52;;;;;;;100.20;60.10;;;;;;;6.04;61.81;101094.70;105174;1287;22553;-81
2022/03/16 01:43:20;;;;;;;97.80;57.80;;;;;;;6.02;61.94;101104.25;105252;1284;22568;-79
2022/03/16 01:45:49;;;;;;;99.60;58.20;;;;;;;6.03;62.00;101110.91;105729;1281;22611;-78
2022/03/16 01:48:17;;;;;;;100.30;58.10;;;;;;;6.02;61.96;101109.15;105330;1281;22556;-79
2022/03/16 01:50:45;;;;;;;98.90;58.10;;;;;;;6.03;62.19;101102.71;105517;1281;25254;-77
2022/03/16 01:53:12;;;;;;;96.50;57.50;;;;;;;6.06;62.13;101100.70;105744;1281;25334;-80
2022/03/16 01:55:40;;;;;;;102.80;59.30;;;;;;;6.07;62.13;101102.45;105488;1281;22554;-81
2022/03/16 01:58:09;;;;;;;93.70;58.20;;;;;;;6.08;61.89;101102.13;105510;1281;22644;-78
2022/03/16 02:00:37;;;;;;;96.00;57.20;;;;;;;6.10;61.91;101101.99;105286;1284;22936;-78
2022/03/16 02:03:07;;;;;;;94.90;58.90;;;;;;;6.07;61.85;101099.66;105265;1281;24701;-79
2022/03/16 02:05:38;;;;;;;88.50;54.50;;;;;;;6.07;61.92;101104.20;105226;1281;22859;-82
2022/03/16 02:08:08;;;;;;;95.40;55.90;;;;;;;6.03;61.85;101103.23;105411;1281;24122;-80
2022/03/16 02:10:35;;;;;;;89.10;57.70;;;;;;;6.02;61.96;101103.56;106088;1281;23935;-77
2022/03/16 02:13:03;;;;;;;96.00;55.60;;;;;;;6.00;61.86;101103.86;105639;1283;25262;-77
2022/03/16 02:15:30;;;;;;;93.10;56.10;;;;;;;6.00;61.96;101105.61;105995;1281;22490;-78
2022/03/16 02:17:57;;;;;;;89.80;56.10;;;;;;;5.99;61.99;101103.65;106268;1281;24226;-76
2022/03/16 02:20:27;;;;;;;85.10;53.30;;;;;;;5.98;62.06;101096.82;105688;1284;22702;-80
2022/03/16 02:22:59;;;;;;;80.50;54.30;;;;;;;5.97;62.02;101089.96;105759;1281;25496;-78
2022/03/16 02:25:28;;;;;;;91.00;54.30;;;;;;;5.97;61.93;101097.14;105630;1281;22573;-79
2022/03/16 02:27:56;;;;;;;81.80;52.60;;;;;;;5.89;61.92;101097.33;105558;1281;25258;-81
2022/03/16 02:30:26;;;;;;;79.70;53.80;;;;;;;5.87;62.22;101096.60;105730;1281;22567;-84
2022/03/16 02:32:53;;;;;;;78.10;51.40;;;;;;;5.91;62.23;101099.81;105606;1284;23965;-79
2022/03/16 02:35:24;;;;;;;78.90;51.50;;;;;;;5.91;62.26;101097.89;105448;1281;25449;-76
2022/03/16 02:37:51;;;;;;;79.10;52.90;;;;;;;5.91;62.38;101098.06;105417;1281;24304;-78
2022/03/16 02:40:23;;;;;;;77.70;51.20;;;;;;;5.88;62.21;101094.52;105522;1281;22561;-78
2022/03/16 02:42:50;;;;;;;74.70;49.00;;;;;;;5.87;62.32;101088.20;105381;1282;22679;-79
2022/03/16 02:45:18;;;;;;;75.90;49.70;;;;;;;5.86;62.37;101086.42;105603;1282;22823;-76
2022/03/16 02:47:45;;;;;;;78.00;50.70;;;;;;;5.88;62.44;101090.65;105600;1281;25613;-75
2022/03/16 02:50:13;;;;;;;74.40;49.60;;;;;;;5.85;62.48;101098.13;105753;1281;22543;-80
2022/03/16 02:52:41;;;;;;;72.40;47.80;;;;;;;5.84;62.47;101092.32;105253;1285;22573;-82
2022/03/16 02:55:25;;;;;;;66.20;47.30;;;;;;;5.85;62.47;101092.35;105499;1287;22802;-81
2022/03/16 02:57:51;;;;;;;69.40;45.40;;;;;;;5.89;62.40;101094.35;105244;1288;22551;-80
2022/03/16 03:00:18;;;;;;;70.60;46.20;;;;;;;5.88;62.51;101090.67;105633;1285;22589;-81
2022/03/16 03:02:45;;;;;;;64.10;44.80;;;;;;;5.92;62.49;101089.19;105418;1287;22549;-80
2022/03/16 03:05:12;;;;;;;65.30;44.60;;;;;;;5.93;62.43;101085.72;105283;1287;24441;-82
2022/03/16 03:07:44;;;;;;;63.40;45.00;;;;;;;5.92;62.42;101083.23;105472;1287;24266;-78
2022/03/16 03:10:11;;;;;;;64.10;44.30;;;;;;;5.88;62.42;101081.74;105072;1282;22710;-82
2022/03/16 03:12:37;;;;;;;67.80;44.30;;;;;;;5.90;62.51;101080.04;105668;1284;23943;-80
2022/03/16 03:15:05;;;;;;;60.40;43.30;;;;;;;5.89;62.43;101070.06;105726;1281;24193;-79
2022/03/16 03:17:32;;;;;;;64.90;44.60;;;;;;;5.87;62.49;101075.77;105731;1281;22492;-80
2022/03/16 03:19:59;;;;;;;63.00;43.90;;;;;;;5.79;62.50;101068.45;105498;1281;22845;-81
2022/03/16 03:22:28;;;;;;;63.40;43.00;;;;;;;5.80;62.49;101076.16;105735;1281;25379;-82
2022/03/16 03:24:56;;;;;;;61.40;40.90;;;;;;;5.81;62.64;101075.50;105836;1281;23803;-82
2022/03/16 03:27:24;;;;;;;59.00;41.60;;;;;;;5.84;62.73;101078.17;105562;1281;22546;-77
2022/03/16 03:29:52;;;;;;;55.60;39.90;;;;;;;5.85;62.73;101082.55;105832;1281;22573;-79
2022/03/16 03:32:19;;;;;;;62.00;42.50;;;;;;;5.81;62.63;101080.55;105906;1281;22543;-81
2022/03/16 03:34:47;;;;;;;57.80;42.10;;;;;;;5.81;62.71;101085.11;106031;1281;22561;-80
2022/03/16 03:37:14;;;;;;;61.70;42.20;;;;;;;5.80;62.65;101083.15;105714;1281;25539;-82
2022/03/16 03:39:42;;;;;;;66.20;43.20;;;;;;;5.79;62.78;101085.22;105661;1281;22619;-79
2022/03/16 03:42:09;;;;;;;61.50;43.30;;;;;;;5.80;62.82;101094.00;105979;1281;25375;-78
2022/03/16 03:44:37;;;;;;;59.20;41.40;;;;;;;5.82;62.80;101097.89;105881;1281;25381;-82
2022/03/16 03:47:10;;;;;;;58.00;42.00;;;;;;;5.84;62.86;101098.27;105800;1281;25605;-79
2022/03/16 03:49:39;;;;;;;59.00;40.50;;;;;;;5.87;62.72;101097.98;105269;1285;22535;-79
2022/03/16 03:52:07;;;;;;;58.00;41.10;;;;;;;5.88;62.86;101097.46;105093;1287;25867;-79
2022/03/16 03:54:34;;;;;;;61.30;42.00;;;;;;;5.87;62.73;101099.39;105228;1287;25749;-79
2022/03/16 03:57:03;;;;;;;59.10;41.40;;;;;;;5.87;62.78;101100.60;104861;1288;22560;-80
2022/03/16 03:59:31;;;;;;;60.70;41.80;;;;;;;5.88;62.82;101102.90;105182;1287;25254;-79
2022/03/16 04:01:58;;;;;;;64.00;41.40;;;;;;;5.89;62.71;101100.30;104681;1290;22570;-76
2022/03/16 04:04:26;;;;;;;59.40;42.10;;;;;;;5.91;62.70;101098.44;104701;1290;24243;-80
2022/03/16 04:06:53;;;;;;;58.70;39.90;;;;;;;5.95;62.60;101095.70;104686;1290;26624;-78
2022/03/16 04:09:20;;;;;;;60.00;40.50;;;;;;;5.94;62.56;101094.13;105136;1284;23691;-80
2022/03/16 04:11:47;;;;;;;60.30;41.00;;;;;;;5.93;62.41;101098.81;104651;1288;22594;-79
2022/03/16 04:14:16;;;;;;;53.00;38.60;;;;;;;5.90;62.57;101101.90;104723;1288;22546;-82
2022/03/16 04:16:43;;;;;;;60.90;40.90;;;;;;;5.88;62.46;101093.64;104739;1288;24252;-81
2022/03/16 04:19:10;;;;;;;56.50;39.80;;;;;;;5.84;62.50;101099.84;104702;1290;22655;-78
2022/03/16 04:21:37;;;;;;;52.40;38.50;;;;;;;5.85;62.69;101100.57;105122;1284;23989;-79
2022/03/16 04:24:05;;;;;;;56.40;39.40;;;;;;;5.84;62.74;101101.95;105223;1284;22765;-78
2022/03/16 04:26:32;;;;;;;53.00;38.70;;;;;;;5.86;62.71;101097.45;105162;1284;24268;-79
2022/03/16 04:28:59;;;;;;;49.00;37.60;;;;;;;5.85;62.71;101091.49;105277;1285;22873;-78
2022/03/16 04:31:26;;;;;;;53.60;38.20;;;;;;;5.85;62.66;101093.05;105930;1281;22633;-79
2022/03/16 04:33:53;;;;;;;56.70;39.80;;;;;;;5.81;62.67;101089.65;105608;1282;22604;-78
2022/03/16 04:36:20;;;;;;;57.20;39.50;;;;;;;5.80;62.73;101090.49;105769;1281;22589;-81
2022/03/16 04:38:47;;;;;;;55.90;38.50;;;;;;;5.79;62.78;101085.60;105536;1281;22600;-79
2022/03/16 04:41:14;;;;;;;57.80;38.80;;;;;;;5.79;62.86;101084.86;105654;1281;22711;-74
2022/03/16 04:43:41;;;;;;;56.00;40.40;;;;;;;5.79;62.97;101087.16;105897;1281;22922;-79
2022/03/16 04:46:07;;;;;;;55.30;38.20;;;;;;;5.82;63.01;101087.04;106097;1281;22686;-83
2022/03/16 04:48:34;;;;;;;58.80;38.80;;;;;;;5.85;63.00;101089.04;106065;1281;24292;-79
2022/03/16 04:51:02;;;;;;;54.10;39.70;;;;;;;5.90;63.04;101087.23;105720;1281;23034;-78
2022/03/16 04:53:29;;;;;;;53.50;37.90;;;;;;;5.92;62.92;101094.42;105545;1281;25304;-77
2022/03/16 04:55:56;;;;;;;49.90;37.00;;;;;;;5.91;62.87;101095.96;105633;1281;25302;-77
2022/03/16 04:58:23;;;;;;;50.40;37.40;;;;;;;5.90;62.88;101096.29;105649;1281;23636;-79
2022/03/16 05:00:50;;;;;;;51.30;39.20;;;;;;;5.88;62.96;101100.10;105468;1281;22768;-75
2022/03/16 05:03:17;;;;;;;54.70;39.30;;;;;;;5.86;62.76;101105.84;105602;1280;25579;-78
2022/03/16 05:05:44;;;;;;;52.40;38.80;;;;;;;5.86;63.01;101108.27;105664;1281;23937;-75
2022/03/16 05:08:11;;;;;;;53.20;37.60;;;;;;;5.87;63.00;101112.49;105607;1281;22878;-72
2022/03/16 05:10:38;;;;;;;56.40;39.40;;;;;;;5.85;62.95;101116.30;107758;1281;24446;-89
2022/03/16 05:13:05;;;;;;;53.10;36.60;;;;;;;5.81;62.94;101120.42;108720;1279;22677;-87
2022/03/16 05:15:32;;;;;;;49.70;38.30;;;;;;;5.81;63.08;101120.42;109066;1273;22970;-79
2022/03/16 05:17:58;;;;;;;58.00;39.50;;;;;;;5.80;62.95;101123.02;109697;1279;22147;-81
2022/03/16 05:20:26;;;;;;;49.50;38.20;;;;;;;5.79;62.97;101123.86;108465;1279;22846;-83
2022/03/16 05:22:53;;;;;;;53.00;38.90;;;;;;;5.77;63.04;101124.35;107747;1279;22770;-79
2022/03/16 05:25:24;;;;;;;52.00;39.20;;;;;;;5.77;63.10;101129.74;108293;1279;347785;-88
2022/03/16 05:27:51;;;;;;;53.00;40.50;;;;;;;5.80;63.14;101128.42;109050;1279;22666;-92
2022/03/16 05:30:20;;;;;;;56.90;39.20;;;;;;;5.83;63.16;101129.39;109447;1279;22496;-82
2022/03/16 05:32:50;;;;;;;53.00;38.60;;;;;;;5.82;63.00;101128.46;109482;1278;22526;-89
2022/03/16 05:35:27;;;;;;;59.20;39.70;;;;;;;5.78;62.91;101120.51;109339;1270;22763;31
2022/03/16 05:38:05;;;;;;;55.30;38.90;;;;;;;5.71;63.08;101127.52;108464;1271;22953;31
2022/03/16 05:40:32;;;;;;;53.40;37.30;;;;;;;5.67;63.20;101128.33;108498;1282;22641;-85
2022/03/16 05:42:59;;;;;;;52.10;39.00;;;;;;;5.70;63.24;101125.40;108005;1287;23056;-92
2022/03/16 05:45:26;;;;;;;56.20;40.10;;;;;;;5.70;63.24;101128.36;108377;1275;23865;-80
2022/03/16 05:47:53;;;;;;;58.70;40.20;;;;;;;5.73;63.30;101126.85;108496;1284;22591;-93
2022/03/16 05:50:20;;;;;;;57.40;37.60;;;;;;;5.73;63.23;101124.75;107729;1281;22687;-87
2022/03/16 05:52:47;;;;;;;58.30;41.60;;;;;;;5.73;63.28;101122.84;107942;1281;22923;-85
2022/03/16 05:55:14;;;;;;;63.40;41.00;;;;;;;5.72;63.23;101126.51;107046;1282;23331;-83
2022/03/16 05:57:44;;;;;;;62.20;40.90;;;;;;;5.72;63.42;101128.41;106055;1281;22860;-86
2022/03/16 06:00:14;;;;;;;56.90;40.80;;;;;;;5.76;63.59;101138.83;107413;1281;22560;-83
2022/03/16 06:02:44;;;;;;;59.20;41.00;;;;;;;5.76;63.43;101144.77;106721;1281;22554;-81
2022/03/16 06:05:12;;;;;;;60.20;40.70;;;;;;;5.79;63.61;101150.98;105704;1282;25372;-82
2022/03/16 06:07:40;;;;;;;57.20;38.70;;;;;;;5.82;63.52;101145.27;105721;1284;24363;-82
2022/03/16 06:10:10;;;;;;;62.00;42.00;;;;;;;5.84;63.48;101149.48;105841;1282;24234;-81
2022/03/16 06:12:53;;;;;;;60.10;41.50;;;;;;;5.80;63.47;101151.68;106270;1282;22552;-84
2022/03/16 06:15:22;;;;;;;51.90;40.30;;;;;;;5.85;63.53;101158.24;106089;1281;22549;-81
2022/03/16 06:17:49;;;;;;;57.40;42.30;;;;;;;5.85;63.49;101153.17;106869;1281;22534;-81
2022/03/16 06:20:16;;;;;;;56.40;40.50;;;;;;;5.93;63.50;101154.74;105955;1282;25265;-81
2022/03/16 06:22:43;;;;;;;57.30;40.70;;;;;;;5.92;63.32;101160.34;106274;1282;22543;-84
2022/03/16 06:25:10;;;;;;;55.70;41.50;;;;;;;5.94;63.32;101167.54;105861;1283;22497;-81
2022/03/16 06:27:37;;;;;;;66.90;42.50;;;;;;;6.00;63.34;101168.02;105652;1281;25235;-81
2022/03/16 06:30:05;;;;;;;56.20;41.20;;;;;;;6.05;63.28;101176.91;105642;1281;25973;-80
2022/03/16 06:32:33;;;;;;;56.10;43.00;;;;;;;6.08;63.10;101176.63;105734;1283;24228;-84
2022/03/16 06:35:00;;;;;;;63.80;44.10;;;;;;;6.12;62.98;101178.98;105985;1281;24270;-85
2022/03/16 06:37:27;;;;;;;55.60;42.00;;;;;;;6.17;62.86;101179.80;107044;1282;22577;-85
2022/03/16 06:39:54;;;;;;;56.90;42.70;;;;;;;6.20;62.56;101182.83;106869;1282;23939;-86
2022/03/16 06:42:21;;;;;;;49.10;39.00;;;;;;;6.19;62.48;101182.11;107220;1282;22881;-86
2022/03/16 06:44:48;;;;;;;64.30;45.00;;;;;;;6.21;62.48;101187.41;107080;1282;22554;-85
2022/03/16 06:47:15;;;;;;;60.60;42.10;;;;;;;6.21;62.32;101189.16;106593;1288;26547;-85
2022/03/16 06:49:42;;;;;;;58.90;43.50;;;;;;;6.22;62.47;101188.48;107049;1287;22496;-86
2022/03/16 06:52:09;;;;;;;64.30;43.00;;;;;;;6.26;62.35;101193.81;106958;1287;25297;-85
2022/03/16 06:54:37;;;;;;;60.40;41.50;;;;;;;6.27;62.24;101195.94;106837;1287;22624;-86
2022/03/16 06:57:04;;;;;;;51.60;39.90;;;;;;;6.27;62.11;101198.02;107299;1287;22709;-85
2022/03/16 06:59:50;;;;;;;57.20;41.60;;;;;;;6.29;61.91;101199.31;106774;1287;22631;-87
2022/03/16 07:02:17;;;;;;;59.00;42.30;;;;;;;6.32;61.74;101202.67;105853;1293;24294;-87
2022/03/16 07:04:44;;;;;;;55.20;41.90;;;;;;;6.37;61.73;101202.95;105645;1290;23940;-85
2022/03/16 07:07:11;;;;;;;55.50;40.70;;;;;;;6.40;61.63;101202.67;106005;1288;22556;-85
2022/03/16 07:09:38;;;;;;;57.70;41.40;;;;;;;6.43;61.64;101203.96;105599;1288;24320;-87
2022/03/16 07:12:06;;;;;;;60.70;42.80;;;;;;;6.44;61.42;101208.71;105468;1288;22591;-85
2022/03/16 07:14:33;;;;;;;58.80;42.40;;;;;;;6.49;61.48;101206.86;105509;1288;22720;-85
2022/03/16 07:17:03;;;;;;;66.70;43.90;;;;;;;6.53;61.42;101207.14;105219;1288;24304;-86
2022/03/16 07:19:30;;;;;;;60.40;42.80;;;;;;;6.56;61.15;101208.08;105363;1287;22755;-86
2022/03/16 07:21:58;;;;;;;60.50;43.40;;;;;;;6.56;61.02;101205.45;105949;1281;22884;-87
2022/03/16 07:24:25;;;;;;;63.30;43.50;;;;;;;6.60;61.01;101210.42;105959;1281;23228;-85
2022/03/16 07:27:02;;;;;;;60.00;43.60;;;;;;;6.62;61.05;101211.36;107232;1281;22480;-86
2022/03/16 07:29:30;;;;;;;60.50;41.40;;;;;;;6.66;60.97;101213.54;106089;1281;24192;-86
2022/03/16 07:31:57;;;;;;;64.50;43.40;;;;;;;6.66;60.69;101212.31;105770;1288;22502;-86
2022/03/16 07:34:26;;;;;;;63.50;44.90;;;;;;;6.72;60.54;101207.69;104777;1288;22571;-87
2022/03/16 07:36:53;;;;;;;65.80;46.50;;;;;;;6.78;60.48;101202.02;104941;1290;24261;-86
2022/03/16 07:39:20;;;;;;;64.90;44.00;;;;;;;6.84;60.26;101204.59;104952;1287;25690;-87
2022/03/16 07:41:48;;;;;;;63.10;44.20;;;;;;;6.88;60.04;101203.09;105100;1288;22537;-88
2022/03/16 07:44:16;;;;;;;63.20;44.20;;;;;;;6.95;60.11;101205.70;105014;1288;22554;-87
2022/03/16 07:46:43;;;;;;;67.60;45.10;;;;;;;7.06;59.85;101207.30;105009;1287;24240;-86
2022/03/16 07:49:10;;;;;;;69.30;44.10;;;;;;;7.16;59.70;101209.58;105144;1290;24290;-86
2022/03/16 07:51:37;;;;;;;58.80;44.40;;;;;;;7.25;59.31;101212.17;105673;1281;22659;-83
2022/03/16 07:54:04;;;;;;;63.50;44.90;;;;;;;7.33;59.03;101216.02;105738;1281;22766;-85
2022/03/16 07:56:31;;;;;;;54.60;41.80;;;;;;;7.39;58.63;101220.48;105480;1281;24239;-86
2022/03/16 07:59:01;;;;;;;65.50;42.50;;;;;;;7.43;58.32;101221.79;105660;1281;22581;-86
2022/03/16 08:01:29;;;;;;;55.90;43.70;;;;;;;7.51;58.07;101223.84;105565;1281;22549;-87
2022/03/16 08:03:55;;;;;;;62.40;45.00;;;;;;;7.59;57.89;101220.64;105539;1281;22846;-87
2022/03/16 08:06:22;;;;;;;54.90;41.80;;;;;;;7.68;57.62;101222.38;105543;1281;24246;-84
2022/03/16 08:08:49;;;;;;;63.80;41.80;;;;;;;7.76;57.39;101223.37;105985;1281;25377;-84
2022/03/16 08:11:16;;;;;;;64.90;42.50;;;;;;;7.84;57.20;101228.05;106021;1281;24186;-89
2022/03/16 08:13:43;;;;;;;70.20;44.50;;;;;;;7.90;57.00;101226.04;106169;1281;22589;-88
2022/03/16 08:16:10;;;;;;;57.50;42.80;;;;;;;7.99;56.67;101232.31;107814;1281;22594;-87
2022/03/16 08:18:42;;;;;;;63.30;43.30;;;;;;;8.08;56.49;101231.22;108188;1281;22500;-86
2022/03/16 08:21:09;;;;;;;59.40;44.40;;;;;;;8.20;56.36;101231.05;108172;1281;22536;-87
2022/03/16 08:23:36;;;;;;;57.30;41.80;;;;;;;8.32;55.90;101233.14;108273;1281;22721;-87
2022/03/16 08:26:02;;;;;;;59.20;40.00;;;;;;;8.43;55.50;101231.70;108623;1281;22619;-86
2022/03/16 08:28:30;;;;;;;64.10;43.00;;;;;;;8.53;55.14;101232.55;108167;1281;22569;-87
2022/03/16 08:30:58;;;;;;;59.70;41.00;;;;;;;8.61;54.63;101235.67;107732;1281;22645;-87
2022/03/16 08:33:26;;;;;;;58.00;43.20;;;;;;;8.68;54.15;101236.27;106878;1281;22554;-89
2022/03/16 08:35:53;;;;;;;61.70;41.40;;;;;;;8.78;54.06;101237.45;106725;1281;24232;-86
2022/03/16 08:38:20;;;;;;;56.20;40.50;;;;;;;8.84;53.51;101238.92;108158;1281;22611;-88
2022/03/16 08:40:47;;;;;;;66.60;43.70;;;;;;;8.88;53.32;101237.90;108265;1281;22878;-87
2022/03/16 08:43:14;;;;;;;58.10;42.50;;;;;;;8.93;53.12;101237.42;108123;1281;22552;-85
2022/03/16 08:45:41;;;;;;;62.30;42.70;;;;;;;9.04;52.93;101242.64;108979;1281;22686;-82
2022/03/16 08:48:08;;;;;;;60.30;42.80;;;;;;;9.09;52.79;101240.42;108237;1281;22487;-86
2022/03/16 08:50:35;;;;;;;65.80;44.90;;;;;;;9.23;52.52;101243.55;106777;1282;23851;-86
2022/03/16 08:53:02;;;;;;;52.70;41.40;;;;;;;9.30;52.02;101246.09;106317;1281;25243;-87
2022/03/16 08:55:29;;;;;;;64.00;43.40;;;;;;;9.31;51.57;101253.46;106148;1281;25260;-85
2022/03/16 08:57:57;;;;;;;66.00;43.20;;;;;;;9.32;51.46;101253.30;105800;1281;22601;-84
2022/03/16 09:00:24;;;;;;;64.80;43.20;;;;;;;9.35;51.32;101256.14;106345;1281;22712;-86
2022/03/16 09:02:51;;;;;;;60.30;40.90;;;;;;;9.39;51.04;101258.66;106536;1281;25246;-87
2022/03/16 09:05:18;;;;;;;56.90;42.90;;;;;;;9.39;50.73;101256.20;106452;1281;22560;-86
2022/03/16 09:07:45;;;;;;;57.80;40.80;;;;;;;9.40;50.79;101256.54;106843;1281;22550;-86
2022/03/16 09:10:12;;;;;;;63.00;42.40;;;;;;;9.42;50.40;101258.67;107276;1281;25403;-86
2022/03/16 09:12:40;;;;;;;61.00;44.60;;;;;;;9.43;50.52;101257.10;107699;1281;22559;-86
2022/03/16 09:15:10;;;;;;;63.60;42.90;;;;;;;9.48;50.47;101260.49;108456;1281;22634;-86
2022/03/16 09:17:37;;;;;;;61.50;44.30;;;;;;;9.52;50.14;101265.98;108033;1281;24489;-87
2022/03/16 09:20:05;;;;;;;64.60;40.80;;;;;;;9.58;49.93;101264.80;107584;1281;22802;-87
2022/03/16 09:22:32;;;;;;;58.60;43.80;;;;;;;9.69;49.77;101268.59;108217;1281;22531;-86
2022/03/16 09:25:00;;;;;;;57.50;43.00;;;;;;;9.81;49.73;101272.20;108811;1281;22558;-89
2022/03/16 09:27:28;;;;;;;62.50;43.60;;;;;;;9.96;49.53;101270.40;108614;1281;22686;-87
2022/03/16 09:29:55;;;;;;;73.60;43.50;;;;;;;10.11;49.22;101275.42;107985;1281;22677;-87
2022/03/16 09:32:23;;;;;;;57.30;40.30;;;;;;;10.29;48.85;101283.11;106423;1281;22937;-90
2022/03/16 09:34:52;;;;;;;59.30;41.80;;;;;;;10.47;48.62;101282.18;105947;1281;25312;-87
2022/03/16 09:37:19;;;;;;;57.10;40.90;;;;;;;10.63;48.25;101282.47;106040;1281;22769;-87
2022/03/16 09:39:46;;;;;;;51.70;39.80;;;;;;;10.79;48.02;101285.88;105575;1282;22647;-88
2022/03/16 09:42:13;;;;;;;54.70;40.40;;;;;;;10.95;47.61;101288.76;105900;1281;23230;-87
2022/03/16 09:44:41;;;;;;;57.60;40.80;;;;;;;11.17;47.30;101280.90;105547;1281;22547;-88
2022/03/16 09:47:09;;;;;;;55.30;37.90;;;;;;;11.38;47.05;101280.06;105953;1281;22534;-89
2022/03/16 09:49:38;;;;;;;54.60;38.30;;;;;;;11.55;46.18;101278.85;105727;1281;24339;-87
2022/03/16 09:52:09;;;;;;;51.00;39.50;;;;;;;11.74;46.14;101288.92;105558;1281;25383;-86
2022/03/16 09:54:36;;;;;;;53.00;37.90;;;;;;;11.96;45.80;101291.41;105588;1281;25549;-85
2022/03/16 09:57:04;;;;;;;55.10;38.50;;;;;;;12.10;45.34;101293.00;105442;1281;25384;-88
2022/03/16 09:59:30;;;;;;;52.00;36.60;;;;;;;12.16;45.01;101292.84;105373;1281;22937;-89
2022/03/16 10:01:59;;;;;;;56.40;38.30;;;;;;;12.20;44.80;101295.47;105331;1281;26586;-88
2022/03/16 10:04:29;;;;;;;49.20;37.70;;;;;;;12.21;44.55;101292.48;105453;1282;24270;-88
2022/03/16 10:07:00;;;;;;;49.80;34.80;;;;;;;12.28;44.57;101290.70;105507;1281;25381;-88
2022/03/16 10:15:19;;;;;;;52.70;35.10;;;;;;;12.79;44.01;101285.77;105748;1281;24101;-90
2022/03/16 10:17:49;;;;;;;55.50;34.60;;;;;;;13.04;43.90;101293.80;105545;1281;25385;-88
2022/03/16 10:20:28;;;;;;;47.70;35.00;;;;;;;13.27;43.71;101295.09;105503;1281;22501;-88
2022/03/16 10:22:58;;;;;;;47.10;33.30;;;;;;;13.56;43.52;101301.30;105631;1282;24398;-88
2022/03/16 10:25:27;;;;;;;42.10;32.00;;;;;;;13.81;43.22;101299.89;105629;1282;23934;-90
2022/03/16 10:28:11;;;;;;;39.80;31.30;;;;;;;14.02;42.69;101301.66;105663;1281;22751;-88
2022/03/16 10:30:58;;;;;;;39.90;31.30;;;;;;;14.27;42.45;101298.77;105495;1281;24812;-88
2022/03/16 10:33:27;;;;;;;38.90;29.50;;;;;;;14.55;42.27;101299.54;105982;1281;22485;-87
2022/03/16 10:36:04;;;;;;;37.30;28.40;;;;;;;14.87;42.15;101303.27;105803;1281;23203;-88
2022/03/16 10:38:40;;;;;;;33.90;29.00;;;;;;;15.12;41.57;101309.36;105690;1282;24246;-88
2022/03/16 10:47:15;;;;;;;31.00;24.60;;;;;;;15.70;40.32;101317.58;105401;1285;22546;-87
2022/03/16 10:49:43;;;;;;;32.40;26.50;;;;;;;15.68;39.86;101318.13;105535;1285;24309;-88
2022/03/16 10:52:17;;;;;;;35.00;25.40;;;;;;;15.60;39.93;101318.80;104866;1285;22711;-87
2022/03/16 10:54:51;;;;;;;31.30;26.00;;;;;;;15.61;39.97;101319.66;105191;1285;22562;-86
2022/03/16 10:57:20;;;;;;;33.00;26.50;;;;;;;15.73;39.63;101324.27;105040;1285;22553;-86
2022/03/16 10:59:50;;;;;;;34.30;25.80;;;;;;;15.75;39.42;101322.30;105501;1281;22569;-87
2022/03/16 11:02:19;;;;;;;33.80;26.90;;;;;;;15.73;39.22;101322.50;105708;1281;23013;-85
2022/03/16 11:04:50;;;;;;;31.40;24.80;;;;;;;15.72;39.26;101325.34;105828;1283;25260;-88
2022/03/16 11:07:20;;;;;;;32.00;25.20;;;;;;;15.76;39.13;101324.40;105626;1282;22573;-87
2022/03/16 11:09:48;;;;;;;28.60;23.20;;;;;;;15.88;39.01;101323.50;105812;1281;24236;-86
2022/03/16 11:15:11;;;;;;;28.70;24.20;;;;;;;16.42;38.70;101322.42;105884;1282;22575;-86
2022/03/16 11:17:40;;;;;;;34.20;25.70;;;;;;;16.59;38.27;101322.99;106091;1281;22674;-88
2022/03/16 11:20:08;;;;;;;31.70;25.40;;;;;;;16.75;37.89;101326.42;105893;1282;22555;-87
2022/03/16 11:26:24;;;;;;;29.80;23.80;;;;;;;16.99;37.73;101324.52;104860;1288;24255;-87
2022/03/16 11:28:57;;;;;;;27.70;22.90;;;;;;;17.23;37.45;101327.94;105377;1287;24189;-86